sensor_id;sensor_type;location;lat;lon;timestamp;temperature;humidity
7658;DHT22;8462;53.156;8.220;2023-10-19T00:02:06;9.60;99.90
7658;DHT22;8462;53.156;8.220;2023-10-19T00:04:32;9.50;99.90
7658;DHT22;8462;53.156;8.220;2023-10-19T00:07:01;9.50;99.90
7658;DHT22;8462;53.156;8.220;2023-10-19T00:09:30;9.50;99.90
7658;DHT22;8462;53.156;8.220;2023-10-19T00:12:04;9.40;99.90
7658;DHT22;8462;53.156;8.220;2023-10-19T00:14:35;9.40;99.90
7658;DHT22;8462;53.156;8.220;2023-10-19T00:17:01;9.40;99.90
7658;DHT22;8462;53.156;8.220;2023-10-19T00:19:32;9.30;99.90
7658;DHT22;8462;53.156;8.220;2023-10-19T00:22:05;9.30;99.90
7658;DHT22;8462;53.156;8.220;2023-10-19T00:24:36;9.30;99.90
7658;DHT22;8462;53.156;8.220;2023-10-19T00:27:04;9.30;99.90
7658;DHT22;8462;53.156;8.220;2023-10-19T00:29:42;9.20;99.90
7658;DHT22;8462;53.156;8.220;2023-10-19T00:32:15;9.20;99.90
7658;DHT22;8462;53.156;8.220;2023-10-19T00:34:43;9.20;99.90
7658;DHT22;8462;53.156;8.220;2023-10-19T00:37:18;9.10;99.90
7658;DHT22;8462;53.156;8.220;2023-10-19T00:39:52;9.10;99.90
7658;DHT22;8462;53.156;8.220;2023-10-19T00:42:22;9.20;99.90
7658;DHT22;8462;53.156;8.220;2023-10-19T00:44:55;9.10;99.90
7658;DHT22;8462;53.156;8.220;2023-10-19T00:47:28;9.10;99.90
7658;DHT22;8462;53.156;8.220;2023-10-19T00:50:06;9.10;99.90
7658;DHT22;8462;53.156;8.220;2023-10-19T00:52:42;9.10;99.90
7658;DHT22;8462;53.156;8.220;2023-10-19T00:55:15;9.10;99.90
7658;DHT22;8462;53.156;8.220;2023-10-19T00:57:46;9.10;99.90
7658;DHT22;8462;53.156;8.220;2023-10-19T01:00:16;9.10;99.90
7658;DHT22;8462;53.156;8.220;2023-10-19T01:02:57;9.10;99.90
7658;DHT22;8462;53.156;8.220;2023-10-19T01:05:25;9.00;99.90
7658;DHT22;8462;53.156;8.220;2023-10-19T01:07:59;9.00;99.90
7658;DHT22;8462;53.156;8.220;2023-10-19T01:10:28;9.00;99.90
7658;DHT22;8462;53.156;8.220;2023-10-19T01:12:58;8.90;99.90
7658;DHT22;8462;53.156;8.220;2023-10-19T01:15:26;8.90;99.90
7658;DHT22;8462;53.156;8.220;2023-10-19T01:17:58;8.90;99.90
7658;DHT22;8462;53.156;8.220;2023-10-19T01:20:28;8.90;99.90
7658;DHT22;8462;53.156;8.220;2023-10-19T01:23:15;8.90;99.90
7658;DHT22;8462;53.156;8.220;2023-10-19T01:25:50;8.90;99.90
7658;DHT22;8462;53.156;8.220;2023-10-19T01:28:26;8.90;99.90
7658;DHT22;8462;53.156;8.220;2023-10-19T01:31:07;8.90;99.90
7658;DHT22;8462;53.156;8.220;2023-10-19T01:33:34;8.90;99.90
7658;DHT22;8462;53.156;8.220;2023-10-19T01:36:01;8.90;99.90
7658;DHT22;8462;53.156;8.220;2023-10-19T01:38:39;8.80;99.90
7658;DHT22;8462;53.156;8.220;2023-10-19T01:41:05;8.80;99.90
7658;DHT22;8462;53.156;8.220;2023-10-19T01:43:39;8.80;99.90
7658;DHT22;8462;53.156;8.220;2023-10-19T01:46:06;8.90;99.90
7658;DHT22;8462;53.156;8.220;2023-10-19T01:48:38;8.90;99.90
7658;DHT22;8462;53.156;8.220;2023-10-19T01:51:06;8.90;99.90
7658;DHT22;8462;53.156;8.220;2023-10-19T01:53:38;8.90;99.90
7658;DHT22;8462;53.156;8.220;2023-10-19T01:56:05;8.90;99.90
7658;DHT22;8462;53.156;8.220;2023-10-19T01:58:35;8.80;99.90
7658;DHT22;8462;53.156;8.220;2023-10-19T02:04:45;8.80;99.90
7658;DHT22;8462;53.156;8.220;2023-10-19T02:07:11;8.80;99.90
7658;DHT22;8462;53.156;8.220;2023-10-19T02:09:40;8.80;99.90
7658;DHT22;8462;53.156;8.220;2023-10-19T02:12:06;8.80;99.90
7658;DHT22;8462;53.156;8.220;2023-10-19T02:14:33;8.80;99.90
7658;DHT22;8462;53.156;8.220;2023-10-19T02:17:00;8.80;99.90
7658;DHT22;8462;53.156;8.220;2023-10-19T02:19:30;8.80;99.90
7658;DHT22;8462;53.156;8.220;2023-10-19T02:21:57;8.90;99.90
7658;DHT22;8462;53.156;8.220;2023-10-19T02:24:25;8.80;99.90
7658;DHT22;8462;53.156;8.220;2023-10-19T02:26:55;8.90;99.90
7658;DHT22;8462;53.156;8.220;2023-10-19T02:29:22;8.80;99.90
7658;DHT22;8462;53.156;8.220;2023-10-19T02:31:48;8.80;99.90
7658;DHT22;8462;53.156;8.220;2023-10-19T02:34:17;8.80;99.90
7658;DHT22;8462;53.156;8.220;2023-10-19T02:36:45;8.80;99.90
7658;DHT22;8462;53.156;8.220;2023-10-19T02:39:14;8.80;99.90
7658;DHT22;8462;53.156;8.220;2023-10-19T02:41:41;8.80;99.90
7658;DHT22;8462;53.156;8.220;2023-10-19T02:44:13;8.80;99.90
7658;DHT22;8462;53.156;8.220;2023-10-19T02:46:45;8.80;99.90
7658;DHT22;8462;53.156;8.220;2023-10-19T02:49:14;8.80;99.90
7658;DHT22;8462;53.156;8.220;2023-10-19T02:51:44;8.80;99.90
7658;DHT22;8462;53.156;8.220;2023-10-19T02:54:12;8.80;99.90
7658;DHT22;8462;53.156;8.220;2023-10-19T02:56:46;8.80;99.90
7658;DHT22;8462;53.156;8.220;2023-10-19T02:59:15;8.80;99.90
7658;DHT22;8462;53.156;8.220;2023-10-19T03:01:43;8.80;99.90
7658;DHT22;8462;53.156;8.220;2023-10-19T03:04:10;8.80;99.90
7658;DHT22;8462;53.156;8.220;2023-10-19T03:06:38;8.80;99.90
7658;DHT22;8462;53.156;8.220;2023-10-19T03:09:07;8.80;99.90
7658;DHT22;8462;53.156;8.220;2023-10-19T03:11:39;8.80;99.90
7658;DHT22;8462;53.156;8.220;2023-10-19T03:14:06;8.80;99.90
7658;DHT22;8462;53.156;8.220;2023-10-19T03:16:35;8.80;99.90
7658;DHT22;8462;53.156;8.220;2023-10-19T03:19:01;8.80;99.90
7658;DHT22;8462;53.156;8.220;2023-10-19T03:21:29;8.80;99.90
7658;DHT22;8462;53.156;8.220;2023-10-19T03:23:59;8.80;99.90
7658;DHT22;8462;53.156;8.220;2023-10-19T03:26:31;8.70;99.90
7658;DHT22;8462;53.156;8.220;2023-10-19T03:28:57;8.70;99.90
7658;DHT22;8462;53.156;8.220;2023-10-19T03:31:39;8.80;99.90
7658;DHT22;8462;53.156;8.220;2023-10-19T03:34:10;8.80;99.90
7658;DHT22;8462;53.156;8.220;2023-10-19T03:36:39;8.80;99.90
7658;DHT22;8462;53.156;8.220;2023-10-19T03:39:06;8.90;99.90
7658;DHT22;8462;53.156;8.220;2023-10-19T03:41:41;8.90;99.90
7658;DHT22;8462;53.156;8.220;2023-10-19T03:44:09;8.90;99.90
7658;DHT22;8462;53.156;8.220;2023-10-19T03:46:43;8.90;99.90
7658;DHT22;8462;53.156;8.220;2023-10-19T03:49:21;8.90;99.90
7658;DHT22;8462;53.156;8.220;2023-10-19T03:51:52;8.90;99.90
7658;DHT22;8462;53.156;8.220;2023-10-19T03:54:26;8.90;99.90
7658;DHT22;8462;53.156;8.220;2023-10-19T03:56:53;8.90;99.90
7658;DHT22;8462;53.156;8.220;2023-10-19T03:59:21;8.90;99.90
7658;DHT22;8462;53.156;8.220;2023-10-19T04:01:49;8.90;99.90
7658;DHT22;8462;53.156;8.220;2023-10-19T04:04:16;8.90;99.90
7658;DHT22;8462;53.156;8.220;2023-10-19T04:06:43;8.90;99.90
7658;DHT22;8462;53.156;8.220;2023-10-19T04:09:13;9.00;99.90
7658;DHT22;8462;53.156;8.220;2023-10-19T04:11:43;9.00;99.90
7658;DHT22;8462;53.156;8.220;2023-10-19T04:14:17;8.90;99.90
7658;DHT22;8462;53.156;8.220;2023-10-19T04:16:46;8.90;99.90
7658;DHT22;8462;53.156;8.220;2023-10-19T04:19:16;8.90;99.90
7658;DHT22;8462;53.156;8.220;2023-10-19T04:21:42;8.90;99.90
7658;DHT22;8462;53.156;8.220;2023-10-19T04:24:12;8.80;99.90
7658;DHT22;8462;53.156;8.220;2023-10-19T04:26:39;8.80;99.90
7658;DHT22;8462;53.156;8.220;2023-10-19T04:29:08;8.90;99.90
7658;DHT22;8462;53.156;8.220;2023-10-19T04:31:37;8.80;99.90
7658;DHT22;8462;53.156;8.220;2023-10-19T04:34:06;8.80;99.90
7658;DHT22;8462;53.156;8.220;2023-10-19T04:36:35;8.80;99.90
7658;DHT22;8462;53.156;8.220;2023-10-19T04:39:03;8.80;99.90
7658;DHT22;8462;53.156;8.220;2023-10-19T04:41:31;8.80;99.90
7658;DHT22;8462;53.156;8.220;2023-10-19T04:43:58;8.80;99.90
7658;DHT22;8462;53.156;8.220;2023-10-19T04:46:26;8.80;99.90
7658;DHT22;8462;53.156;8.220;2023-10-19T04:48:55;8.80;99.90
7658;DHT22;8462;53.156;8.220;2023-10-19T04:51:22;8.80;99.90
7658;DHT22;8462;53.156;8.220;2023-10-19T04:53:50;8.80;99.90
7658;DHT22;8462;53.156;8.220;2023-10-19T04:56:16;8.80;99.90
7658;DHT22;8462;53.156;8.220;2023-10-19T04:58:43;8.80;99.90
7658;DHT22;8462;53.156;8.220;2023-10-19T05:01:10;8.80;99.90
7658;DHT22;8462;53.156;8.220;2023-10-19T05:03:38;8.80;99.90
7658;DHT22;8462;53.156;8.220;2023-10-19T05:06:05;8.70;99.90
7658;DHT22;8462;53.156;8.220;2023-10-19T05:08:32;8.70;99.90
7658;DHT22;8462;53.156;8.220;2023-10-19T05:11:00;8.70;99.90
7658;DHT22;8462;53.156;8.220;2023-10-19T05:13:30;8.70;99.90
7658;DHT22;8462;53.156;8.220;2023-10-19T05:15:57;8.70;99.90
7658;DHT22;8462;53.156;8.220;2023-10-19T05:18:25;8.70;99.90
7658;DHT22;8462;53.156;8.220;2023-10-19T05:20:52;8.70;99.90
7658;DHT22;8462;53.156;8.220;2023-10-19T05:23:22;8.70;99.90
7658;DHT22;8462;53.156;8.220;2023-10-19T05:25:50;8.70;99.90
7658;DHT22;8462;53.156;8.220;2023-10-19T05:28:20;8.70;99.90
7658;DHT22;8462;53.156;8.220;2023-10-19T05:30:48;8.60;99.90
7658;DHT22;8462;53.156;8.220;2023-10-19T05:33:16;8.60;99.90
7658;DHT22;8462;53.156;8.220;2023-10-19T05:35:46;8.70;99.90
7658;DHT22;8462;53.156;8.220;2023-10-19T05:38:13;8.60;99.90
7658;DHT22;8462;53.156;8.220;2023-10-19T05:40:41;8.70;99.90
7658;DHT22;8462;53.156;8.220;2023-10-19T05:43:09;8.70;99.90
7658;DHT22;8462;53.156;8.220;2023-10-19T05:45:37;8.70;99.90
7658;DHT22;8462;53.156;8.220;2023-10-19T05:48:05;8.60;99.90
7658;DHT22;8462;53.156;8.220;2023-10-19T05:50:33;8.60;99.90
7658;DHT22;8462;53.156;8.220;2023-10-19T05:52:59;8.60;99.90
7658;DHT22;8462;53.156;8.220;2023-10-19T05:55:26;8.60;99.90
7658;DHT22;8462;53.156;8.220;2023-10-19T05:57:54;8.70;99.90
7658;DHT22;8462;53.156;8.220;2023-10-19T06:00:22;8.70;99.90
7658;DHT22;8462;53.156;8.220;2023-10-19T06:02:52;8.70;99.90
7658;DHT22;8462;53.156;8.220;2023-10-19T06:05:19;8.80;99.90
7658;DHT22;8462;53.156;8.220;2023-10-19T06:07:48;8.80;99.90
7658;DHT22;8462;53.156;8.220;2023-10-19T06:10:16;8.80;99.90
7658;DHT22;8462;53.156;8.220;2023-10-19T06:12:43;8.80;99.90
7658;DHT22;8462;53.156;8.220;2023-10-19T06:15:12;8.70;99.90
7658;DHT22;8462;53.156;8.220;2023-10-19T06:17:39;8.80;99.90
7658;DHT22;8462;53.156;8.220;2023-10-19T06:20:09;8.80;99.90
7658;DHT22;8462;53.156;8.220;2023-10-19T06:22:46;8.70;99.90
7658;DHT22;8462;53.156;8.220;2023-10-19T06:25:16;8.70;99.90
7658;DHT22;8462;53.156;8.220;2023-10-19T06:27:44;8.70;99.90
7658;DHT22;8462;53.156;8.220;2023-10-19T06:30:11;8.70;99.90
7658;DHT22;8462;53.156;8.220;2023-10-19T06:32:47;8.70;99.90
7658;DHT22;8462;53.156;8.220;2023-10-19T06:35:15;8.70;99.90
7658;DHT22;8462;53.156;8.220;2023-10-19T06:37:43;8.80;99.90
7658;DHT22;8462;53.156;8.220;2023-10-19T06:40:10;8.70;99.90
7658;DHT22;8462;53.156;8.220;2023-10-19T06:42:39;8.80;99.90
7658;DHT22;8462;53.156;8.220;2023-10-19T06:45:07;8.80;99.90
7658;DHT22;8462;53.156;8.220;2023-10-19T06:47:36;8.80;99.90
7658;DHT22;8462;53.156;8.220;2023-10-19T06:50:05;8.80;99.90
7658;DHT22;8462;53.156;8.220;2023-10-19T06:52:37;8.80;99.90
7658;DHT22;8462;53.156;8.220;2023-10-19T06:55:05;8.80;99.90
7658;DHT22;8462;53.156;8.220;2023-10-19T06:57:34;8.80;99.90
7658;DHT22;8462;53.156;8.220;2023-10-19T07:00:04;8.90;99.90
7658;DHT22;8462;53.156;8.220;2023-10-19T07:02:40;8.90;99.90
7658;DHT22;8462;53.156;8.220;2023-10-19T07:05:07;8.90;99.90
7658;DHT22;8462;53.156;8.220;2023-10-19T07:07:38;8.90;99.90
7658;DHT22;8462;53.156;8.220;2023-10-19T07:10:06;9.00;99.90
7658;DHT22;8462;53.156;8.220;2023-10-19T07:12:34;8.90;99.90
7658;DHT22;8462;53.156;8.220;2023-10-19T07:15:01;9.00;99.90
7658;DHT22;8462;53.156;8.220;2023-10-19T07:17:28;9.00;99.90
7658;DHT22;8462;53.156;8.220;2023-10-19T07:19:55;9.00;99.90
7658;DHT22;8462;53.156;8.220;2023-10-19T07:22:22;9.00;99.90
7658;DHT22;8462;53.156;8.220;2023-10-19T07:24:51;9.00;99.90
7658;DHT22;8462;53.156;8.220;2023-10-19T07:27:20;9.00;99.90
7658;DHT22;8462;53.156;8.220;2023-10-19T07:29:48;9.00;99.90
7658;DHT22;8462;53.156;8.220;2023-10-19T07:32:15;9.00;99.90
7658;DHT22;8462;53.156;8.220;2023-10-19T07:34:42;9.00;99.90
7658;DHT22;8462;53.156;8.220;2023-10-19T07:37:10;9.00;99.90
7658;DHT22;8462;53.156;8.220;2023-10-19T07:39:44;9.00;99.90
7658;DHT22;8462;53.156;8.220;2023-10-19T07:42:12;9.10;99.90
7658;DHT22;8462;53.156;8.220;2023-10-19T07:44:41;9.10;99.90
7658;DHT22;8462;53.156;8.220;2023-10-19T07:47:08;9.10;99.90
7658;DHT22;8462;53.156;8.220;2023-10-19T07:49:35;9.20;99.90
7658;DHT22;8462;53.156;8.220;2023-10-19T07:52:04;9.20;99.90
7658;DHT22;8462;53.156;8.220;2023-10-19T07:54:32;9.30;99.90
7658;DHT22;8462;53.156;8.220;2023-10-19T07:56:59;9.30;99.90
7658;DHT22;8462;53.156;8.220;2023-10-19T07:59:30;9.30;99.90
7658;DHT22;8462;53.156;8.220;2023-10-19T08:01:58;9.30;99.90
7658;DHT22;8462;53.156;8.220;2023-10-19T08:04:27;9.20;99.90
7658;DHT22;8462;53.156;8.220;2023-10-19T08:06:55;9.20;99.90
7658;DHT22;8462;53.156;8.220;2023-10-19T08:09:22;9.30;99.90
7658;DHT22;8462;53.156;8.220;2023-10-19T08:11:49;9.30;99.90
7658;DHT22;8462;53.156;8.220;2023-10-19T08:14:21;9.40;99.90
7658;DHT22;8462;53.156;8.220;2023-10-19T08:16:49;9.40;99.90
7658;DHT22;8462;53.156;8.220;2023-10-19T08:19:16;9.40;99.90
7658;DHT22;8462;53.156;8.220;2023-10-19T08:21:44;9.40;99.90
7658;DHT22;8462;53.156;8.220;2023-10-19T08:24:11;9.40;99.90
7658;DHT22;8462;53.156;8.220;2023-10-19T08:26:39;9.40;99.90
7658;DHT22;8462;53.156;8.220;2023-10-19T08:29:07;9.40;99.90
7658;DHT22;8462;53.156;8.220;2023-10-19T08:31:38;9.40;99.90
7658;DHT22;8462;53.156;8.220;2023-10-19T08:34:07;9.40;99.90
7658;DHT22;8462;53.156;8.220;2023-10-19T08:36:35;9.50;99.90
7658;DHT22;8462;53.156;8.220;2023-10-19T08:39:04;9.50;99.90
7658;DHT22;8462;53.156;8.220;2023-10-19T08:41:31;9.50;99.90
7658;DHT22;8462;53.156;8.220;2023-10-19T08:44:00;9.40;99.90
7658;DHT22;8462;53.156;8.220;2023-10-19T08:46:28;9.40;99.90
7658;DHT22;8462;53.156;8.220;2023-10-19T08:48:55;9.40;99.90
7658;DHT22;8462;53.156;8.220;2023-10-19T08:51:24;9.50;99.90
7658;DHT22;8462;53.156;8.220;2023-10-19T08:53:53;9.50;99.90
7658;DHT22;8462;53.156;8.220;2023-10-19T08:56:20;9.50;99.90
7658;DHT22;8462;53.156;8.220;2023-10-19T08:58:49;9.50;99.90
7658;DHT22;8462;53.156;8.220;2023-10-19T09:01:18;9.60;99.90
7658;DHT22;8462;53.156;8.220;2023-10-19T09:03:45;9.50;99.90
7658;DHT22;8462;53.156;8.220;2023-10-19T09:06:13;9.60;99.90
7658;DHT22;8462;53.156;8.220;2023-10-19T09:08:42;9.50;99.90
7658;DHT22;8462;53.156;8.220;2023-10-19T09:11:12;9.60;99.90
7658;DHT22;8462;53.156;8.220;2023-10-19T09:13:46;9.60;99.90
7658;DHT22;8462;53.156;8.220;2023-10-19T09:16:15;9.60;99.90
7658;DHT22;8462;53.156;8.220;2023-10-19T09:18:42;9.50;99.90
7658;DHT22;8462;53.156;8.220;2023-10-19T09:21:10;9.60;99.90
7658;DHT22;8462;53.156;8.220;2023-10-19T09:23:38;9.60;99.90
7658;DHT22;8462;53.156;8.220;2023-10-19T09:26:08;9.60;99.90
7658;DHT22;8462;53.156;8.220;2023-10-19T09:28:38;9.50;99.90
7658;DHT22;8462;53.156;8.220;2023-10-19T09:31:06;9.50;99.90
7658;DHT22;8462;53.156;8.220;2023-10-19T09:33:35;9.50;99.90
7658;DHT22;8462;53.156;8.220;2023-10-19T09:36:05;9.50;99.90
7658;DHT22;8462;53.156;8.220;2023-10-19T09:38:38;9.60;99.90
7658;DHT22;8462;53.156;8.220;2023-10-19T09:41:09;9.60;99.90
7658;DHT22;8462;53.156;8.220;2023-10-19T09:43:42;9.60;99.90
7658;DHT22;8462;53.156;8.220;2023-10-19T09:46:10;9.60;99.90
7658;DHT22;8462;53.156;8.220;2023-10-19T09:48:40;9.60;99.90
7658;DHT22;8462;53.156;8.220;2023-10-19T09:51:07;9.60;99.90
7658;DHT22;8462;53.156;8.220;2023-10-19T09:53:36;9.70;99.90
7658;DHT22;8462;53.156;8.220;2023-10-19T09:56:06;9.70;99.90
7658;DHT22;8462;53.156;8.220;2023-10-19T09:58:40;9.70;99.90
7658;DHT22;8462;53.156;8.220;2023-10-19T10:01:08;9.70;99.90
7658;DHT22;8462;53.156;8.220;2023-10-19T10:03:47;9.80;99.90
7658;DHT22;8462;53.156;8.220;2023-10-19T10:06:15;9.80;99.90
7658;DHT22;8462;53.156;8.220;2023-10-19T10:08:43;9.80;99.90
7658;DHT22;8462;53.156;8.220;2023-10-19T10:11:16;9.80;99.90
7658;DHT22;8462;53.156;8.220;2023-10-19T10:13:46;9.80;99.90
7658;DHT22;8462;53.156;8.220;2023-10-19T10:16:17;9.80;99.90
7658;DHT22;8462;53.156;8.220;2023-10-19T10:18:47;9.80;99.90
7658;DHT22;8462;53.156;8.220;2023-10-19T10:21:17;9.80;99.90
7658;DHT22;8462;53.156;8.220;2023-10-19T10:23:51;9.80;99.90
7658;DHT22;8462;53.156;8.220;2023-10-19T10:26:19;9.70;99.90
7658;DHT22;8462;53.156;8.220;2023-10-19T10:29:08;9.80;99.90
7658;DHT22;8462;53.156;8.220;2023-10-19T10:31:41;9.80;99.90
7658;DHT22;8462;53.156;8.220;2023-10-19T10:34:10;9.90;99.90
7658;DHT22;8462;53.156;8.220;2023-10-19T10:36:59;9.90;99.90
7658;DHT22;8462;53.156;8.220;2023-10-19T10:39:28;9.90;99.90
7658;DHT22;8462;53.156;8.220;2023-10-19T10:41:57;9.90;99.90
7658;DHT22;8462;53.156;8.220;2023-10-19T10:44:42;10.00;99.90
7658;DHT22;8462;53.156;8.220;2023-10-19T10:47:11;10.00;99.90
7658;DHT22;8462;53.156;8.220;2023-10-19T10:49:51;10.00;99.90
7658;DHT22;8462;53.156;8.220;2023-10-19T10:52:29;9.90;99.90
7658;DHT22;8462;53.156;8.220;2023-10-19T10:54:57;9.90;99.90
7658;DHT22;8462;53.156;8.220;2023-10-19T10:57:31;9.90;99.90
7658;DHT22;8462;53.156;8.220;2023-10-19T11:00:07;9.90;99.90
7658;DHT22;8462;53.156;8.220;2023-10-19T11:02:35;9.90;99.90
7658;DHT22;8462;53.156;8.220;2023-10-19T11:05:06;10.00;99.90
7658;DHT22;8462;53.156;8.220;2023-10-19T11:07:38;10.00;99.90
7658;DHT22;8462;53.156;8.220;2023-10-19T11:10:05;10.00;99.90
7658;DHT22;8462;53.156;8.220;2023-10-19T11:12:33;10.10;99.90
7658;DHT22;8462;53.156;8.220;2023-10-19T11:15:00;10.10;99.90
7658;DHT22;8462;53.156;8.220;2023-10-19T11:17:43;10.10;99.90
7658;DHT22;8462;53.156;8.220;2023-10-19T11:20:21;10.00;99.90
7658;DHT22;8462;53.156;8.220;2023-10-19T11:22:48;10.00;99.90
7658;DHT22;8462;53.156;8.220;2023-10-19T11:25:20;10.10;99.90
7658;DHT22;8462;53.156;8.220;2023-10-19T11:27:47;10.10;99.90
7658;DHT22;8462;53.156;8.220;2023-10-19T11:30:22;10.10;99.90
7658;DHT22;8462;53.156;8.220;2023-10-19T11:32:50;10.20;99.90
7658;DHT22;8462;53.156;8.220;2023-10-19T11:35:23;10.20;99.90
7658;DHT22;8462;53.156;8.220;2023-10-19T11:37:50;10.20;99.90
7658;DHT22;8462;53.156;8.220;2023-10-19T11:40:19;10.20;99.90
7658;DHT22;8462;53.156;8.220;2023-10-19T11:42:46;10.20;99.90
7658;DHT22;8462;53.156;8.220;2023-10-19T11:45:13;10.20;99.90
7658;DHT22;8462;53.156;8.220;2023-10-19T11:47:42;10.30;99.90
7658;DHT22;8462;53.156;8.220;2023-10-19T11:50:10;10.20;99.90
7658;DHT22;8462;53.156;8.220;2023-10-19T11:52:41;10.20;99.90
7658;DHT22;8462;53.156;8.220;2023-10-19T11:55:08;10.20;99.90
7658;DHT22;8462;53.156;8.220;2023-10-19T11:57:35;10.20;99.90
7658;DHT22;8462;53.156;8.220;2023-10-19T12:00:02;10.10;99.90
7658;DHT22;8462;53.156;8.220;2023-10-19T12:02:35;10.10;99.90
7658;DHT22;8462;53.156;8.220;2023-10-19T12:05:04;10.10;99.90
7658;DHT22;8462;53.156;8.220;2023-10-19T12:07:36;10.10;99.90
7658;DHT22;8462;53.156;8.220;2023-10-19T12:10:05;10.10;99.90
7658;DHT22;8462;53.156;8.220;2023-10-19T12:12:33;10.00;99.90
7658;DHT22;8462;53.156;8.220;2023-10-19T12:15:01;10.00;99.90
7658;DHT22;8462;53.156;8.220;2023-10-19T12:17:30;9.90;99.90
7658;DHT22;8462;53.156;8.220;2023-10-19T12:19:57;9.90;99.90
7658;DHT22;8462;53.156;8.220;2023-10-19T12:22:24;9.80;99.90
7658;DHT22;8462;53.156;8.220;2023-10-19T12:24:55;9.90;99.90
7658;DHT22;8462;53.156;8.220;2023-10-19T12:27:23;9.80;99.90
7658;DHT22;8462;53.156;8.220;2023-10-19T12:29:51;9.80;99.90
7658;DHT22;8462;53.156;8.220;2023-10-19T12:32:19;9.80;99.90
7658;DHT22;8462;53.156;8.220;2023-10-19T12:34:46;9.80;99.90
7658;DHT22;8462;53.156;8.220;2023-10-19T12:37:15;9.80;99.90
7658;DHT22;8462;53.156;8.220;2023-10-19T12:39:43;9.80;99.90
7658;DHT22;8462;53.156;8.220;2023-10-19T12:42:16;9.80;99.90
7658;DHT22;8462;53.156;8.220;2023-10-19T12:44:42;9.80;99.90
7658;DHT22;8462;53.156;8.220;2023-10-19T12:47:10;9.80;99.90
7658;DHT22;8462;53.156;8.220;2023-10-19T12:49:39;9.70;99.90
7658;DHT22;8462;53.156;8.220;2023-10-19T12:52:06;9.70;99.90
7658;DHT22;8462;53.156;8.220;2023-10-19T12:54:34;9.70;99.90
7658;DHT22;8462;53.156;8.220;2023-10-19T12:57:01;9.70;99.90
7658;DHT22;8462;53.156;8.220;2023-10-19T12:59:30;9.70;99.90
7658;DHT22;8462;53.156;8.220;2023-10-19T13:01:57;9.70;99.90
7658;DHT22;8462;53.156;8.220;2023-10-19T13:04:24;9.70;99.90
7658;DHT22;8462;53.156;8.220;2023-10-19T13:06:55;9.70;99.90
7658;DHT22;8462;53.156;8.220;2023-10-19T13:09:23;9.70;99.90
7658;DHT22;8462;53.156;8.220;2023-10-19T13:11:57;9.70;99.90
7658;DHT22;8462;53.156;8.220;2023-10-19T13:14:24;9.60;99.90
7658;DHT22;8462;53.156;8.220;2023-10-19T13:16:53;9.60;99.90
7658;DHT22;8462;53.156;8.220;2023-10-19T13:19:20;9.60;99.90
7658;DHT22;8462;53.156;8.220;2023-10-19T13:21:50;9.60;99.90
7658;DHT22;8462;53.156;8.220;2023-10-19T13:24:18;9.60;99.90
7658;DHT22;8462;53.156;8.220;2023-10-19T13:26:46;9.60;99.90
7658;DHT22;8462;53.156;8.220;2023-10-19T13:29:13;9.60;99.90
7658;DHT22;8462;53.156;8.220;2023-10-19T13:31:41;9.60;99.90
7658;DHT22;8462;53.156;8.220;2023-10-19T13:34:16;9.70;99.90
7658;DHT22;8462;53.156;8.220;2023-10-19T13:36:42;9.70;99.90
7658;DHT22;8462;53.156;8.220;2023-10-19T13:39:10;9.70;99.90
7658;DHT22;8462;53.156;8.220;2023-10-19T13:41:42;9.70;99.90
7658;DHT22;8462;53.156;8.220;2023-10-19T13:44:09;9.70;99.90
7658;DHT22;8462;53.156;8.220;2023-10-19T13:46:37;9.70;99.90
7658;DHT22;8462;53.156;8.220;2023-10-19T13:49:04;9.70;99.90
7658;DHT22;8462;53.156;8.220;2023-10-19T13:51:32;9.70;99.90
7658;DHT22;8462;53.156;8.220;2023-10-19T13:53:59;9.70;99.90
7658;DHT22;8462;53.156;8.220;2023-10-19T13:56:27;9.60;99.90
7658;DHT22;8462;53.156;8.220;2023-10-19T13:58:53;9.60;99.90
7658;DHT22;8462;53.156;8.220;2023-10-19T14:01:21;9.60;99.90
7658;DHT22;8462;53.156;8.220;2023-10-19T14:03:51;9.60;99.90
7658;DHT22;8462;53.156;8.220;2023-10-19T14:06:20;9.50;99.90
7658;DHT22;8462;53.156;8.220;2023-10-19T14:08:49;9.50;99.90
7658;DHT22;8462;53.156;8.220;2023-10-19T14:11:16;9.50;99.90
7658;DHT22;8462;53.156;8.220;2023-10-19T14:13:43;9.50;99.90
7658;DHT22;8462;53.156;8.220;2023-10-19T14:16:10;9.50;99.90
7658;DHT22;8462;53.156;8.220;2023-10-19T14:18:37;9.40;99.90
7658;DHT22;8462;53.156;8.220;2023-10-19T14:21:11;9.50;99.90
7658;DHT22;8462;53.156;8.220;2023-10-19T14:23:39;9.50;99.90
7658;DHT22;8462;53.156;8.220;2023-10-19T14:26:08;9.40;99.90
7658;DHT22;8462;53.156;8.220;2023-10-19T14:28:35;9.50;99.90
7658;DHT22;8462;53.156;8.220;2023-10-19T14:31:03;9.50;99.90
7658;DHT22;8462;53.156;8.220;2023-10-19T14:33:30;9.50;99.90
7658;DHT22;8462;53.156;8.220;2023-10-19T14:35:58;9.40;99.90
7658;DHT22;8462;53.156;8.220;2023-10-19T14:38:25;9.50;99.90
7658;DHT22;8462;53.156;8.220;2023-10-19T14:40:53;9.40;99.90
7658;DHT22;8462;53.156;8.220;2023-10-19T14:43:21;9.50;99.90
7658;DHT22;8462;53.156;8.220;2023-10-19T14:45:48;9.40;99.90
7658;DHT22;8462;53.156;8.220;2023-10-19T14:48:15;9.30;99.90
7658;DHT22;8462;53.156;8.220;2023-10-19T14:50:44;9.40;99.90
7658;DHT22;8462;53.156;8.220;2023-10-19T14:53:12;9.40;99.90
7658;DHT22;8462;53.156;8.220;2023-10-19T14:55:39;9.40;99.90
7658;DHT22;8462;53.156;8.220;2023-10-19T14:58:06;9.40;99.90
7658;DHT22;8462;53.156;8.220;2023-10-19T15:00:35;9.40;99.90
7658;DHT22;8462;53.156;8.220;2023-10-19T15:03:04;9.50;99.90
7658;DHT22;8462;53.156;8.220;2023-10-19T15:05:33;9.50;99.90
7658;DHT22;8462;53.156;8.220;2023-10-19T15:08:03;9.40;99.90
7658;DHT22;8462;53.156;8.220;2023-10-19T15:10:31;9.40;99.90
7658;DHT22;8462;53.156;8.220;2023-10-19T15:12:59;9.40;99.90
7658;DHT22;8462;53.156;8.220;2023-10-19T15:15:26;9.50;99.90
7658;DHT22;8462;53.156;8.220;2023-10-19T15:17:55;9.50;99.90
7658;DHT22;8462;53.156;8.220;2023-10-19T15:20:26;9.50;99.90
7658;DHT22;8462;53.156;8.220;2023-10-19T15:22:53;9.50;99.90
7658;DHT22;8462;53.156;8.220;2023-10-19T15:25:21;9.50;99.90
7658;DHT22;8462;53.156;8.220;2023-10-19T15:27:51;9.50;99.90
7658;DHT22;8462;53.156;8.220;2023-10-19T15:30:19;9.50;99.90
7658;DHT22;8462;53.156;8.220;2023-10-19T15:32:47;9.60;99.90
7658;DHT22;8462;53.156;8.220;2023-10-19T15:35:16;9.50;99.90
7658;DHT22;8462;53.156;8.220;2023-10-19T15:37:46;9.50;99.90
7658;DHT22;8462;53.156;8.220;2023-10-19T15:40:14;9.50;99.90
7658;DHT22;8462;53.156;8.220;2023-10-19T15:42:41;9.60;99.90
7658;DHT22;8462;53.156;8.220;2023-10-19T15:45:09;9.60;99.90
7658;DHT22;8462;53.156;8.220;2023-10-19T15:47:37;9.60;99.90
7658;DHT22;8462;53.156;8.220;2023-10-19T15:50:05;9.70;99.90
7658;DHT22;8462;53.156;8.220;2023-10-19T15:52:35;9.70;99.90
7658;DHT22;8462;53.156;8.220;2023-10-19T15:55:08;9.70;99.90
7658;DHT22;8462;53.156;8.220;2023-10-19T15:57:36;9.70;99.90
7658;DHT22;8462;53.156;8.220;2023-10-19T16:00:03;9.70;99.90
7658;DHT22;8462;53.156;8.220;2023-10-19T16:02:32;9.70;99.90
7658;DHT22;8462;53.156;8.220;2023-10-19T16:05:00;9.70;99.90
7658;DHT22;8462;53.156;8.220;2023-10-19T16:07:27;9.60;99.90
7658;DHT22;8462;53.156;8.220;2023-10-19T16:09:56;9.60;99.90
7658;DHT22;8462;53.156;8.220;2023-10-19T16:12:23;9.70;99.90
7658;DHT22;8462;53.156;8.220;2023-10-19T16:14:50;9.70;99.90
7658;DHT22;8462;53.156;8.220;2023-10-19T16:17:17;9.70;99.90
7658;DHT22;8462;53.156;8.220;2023-10-19T16:19:44;9.70;99.90
7658;DHT22;8462;53.156;8.220;2023-10-19T16:22:12;9.70;99.90
7658;DHT22;8462;53.156;8.220;2023-10-19T16:24:40;9.70;99.90
7658;DHT22;8462;53.156;8.220;2023-10-19T16:27:08;9.60;99.90
7658;DHT22;8462;53.156;8.220;2023-10-19T16:29:36;9.60;99.90
7658;DHT22;8462;53.156;8.220;2023-10-19T16:32:06;9.50;99.90
7658;DHT22;8462;53.156;8.220;2023-10-19T16:34:35;9.60;99.90